Red Banks, Mississippi
Current Conditions -  °F | °C
As of 6:50 AM on Friday 19 Dec 2014 (Local Time) from KOLV Reporting Station
Overcast Overcast  
Wind Chill: 32°   Ceiling: 3500
Heat Index: 37°   Visibility: 7mi
Dew Point: 37°   Wind: 7mph
Humidity: 100%   Direction: 40°NE
Pressure: 30.24"   Gusts: NA
Location:  34.83°N, 89.56°W
Report Text: KOLV 191250Z 04006KT 7SM OVC035 03/03 A3024
Loading
Personal Weather Stations






























Interactive Weather Map New forecast layout! Learn more

10-Day Weather Forecast

Advertisements
Track Severe Weather on mobile